sim
Sign-in with your pilot id or email,
or register
Callsign
Passwort

Schedule Details

Flight Number: RYR6131
Departure: Warsaw Modlin Airport (EPMO) at 05:35
Arrival: Fuerteventura Airport (GCFV) at 11:10
Route: Ryanair Passenger Schedule. Enter filed route here before submitting Pirep.

Weather Information
Getting current METAR information for EPMO 211500Z 28010KT 5000 -RA BR SCT020 OVC027 05/04 Q1018
Getting current METAR information for GCFV 211500Z 06004KT 010V110 CAVOK 20/14 Q1021

Schedule Frequency

Route Map